Time;durP1;ratioP1;P1;durP2;ratioP2;P2;SDS_P1;SDS_P2;PMS_P1;PMS_P2;Temp;Humidity;BMP_temperature;BMP_pressure;BME280_temperature;BME280_humidity;BME280_pressure;Samples;Min_cycle;Max_cycle;Signal;HPM_P1;HPM_P2
2021/10/05 00:00:35;;;;;;;3.72;0.45;;;22.60;55.00;;;;;;5031845;28;20035;-45
2021/10/05 00:03:02;;;;;;;0.75;0.20;;;22.60;55.10;;;;;;5031576;28;20116;-46
2021/10/05 00:05:29;;;;;;;4.18;0.20;;;22.50;55.10;;;;;;5031534;28;20708;-46
2021/10/05 00:07:58;;;;;;;4.18;0.28;;;22.50;55.10;;;;;;5028044;28;20072;-46
2021/10/05 00:10:25;;;;;;;3.25;0.10;;;22.60;55.20;;;;;;5031473;28;20524;-47
2021/10/05 00:12:52;;;;;;;1.75;0.10;;;22.50;55.20;;;;;;5031322;28;20048;-48
2021/10/05 00:15:20;;;;;;;5.00;0.10;;;22.50;55.20;;;;;;5031795;28;20053;-45
2021/10/05 00:17:47;;;;;;;6.38;0.17;;;22.50;55.20;;;;;;5038210;28;20041;-45
2021/10/05 00:20:15;;;;;;;0.57;0.20;;;22.50;55.30;;;;;;5031327;28;20593;-45
2021/10/05 00:22:43;;;;;;;1.50;0.10;;;22.50;55.20;;;;;;5044835;28;20049;-46
2021/10/05 00:25:12;;;;;;;2.78;0.10;;;22.50;55.30;;;;;;5029785;28;20538;-45
2021/10/05 00:27:39;;;;;;;4.97;1.10;;;22.50;55.30;;;;;;5030621;28;20056;-46
2021/10/05 00:30:07;;;;;;;1.25;0.10;;;22.50;55.30;;;;;;5033689;28;20047;-48
2021/10/05 00:32:35;;;;;;;0.45;0.10;;;22.50;55.40;;;;;;5031116;28;20040;-48
2021/10/05 00:35:02;;;;;;;1.08;0.00;;;22.50;55.40;;;;;;5040943;28;20049;-45
2021/10/05 00:37:29;;;;;;;8.40;0.30;;;22.50;55.40;;;;;;5045752;28;20080;-50
2021/10/05 00:39:56;;;;;;;2.70;0.10;;;22.40;55.50;;;;;;5032614;28;20667;-47
2021/10/05 00:42:25;;;;;;;1.00;0.20;;;22.40;55.50;;;;;;5032068;28;20050;-48
2021/10/05 00:44:52;;;;;;;0.95;0.10;;;22.40;55.60;;;;;;5030353;28;20069;-48
2021/10/05 00:47:19;;;;;;;0.50;0.10;;;22.40;55.60;;;;;;5039505;28;20752;-46
2021/10/05 00:49:48;;;;;;;4.90;0.10;;;22.40;55.60;;;;;;5049866;28;20037;-48
2021/10/05 00:52:16;;;;;;;2.15;0.00;;;22.40;55.70;;;;;;5032317;28;20048;-47
2021/10/05 00:54:45;;;;;;;1.08;0.10;;;22.40;55.80;;;;;;5035654;28;20057;-46
2021/10/05 00:57:13;;;;;;;4.40;0.00;;;22.40;55.90;;;;;;5032844;28;20049;-46
2021/10/05 00:59:43;;;;;;;1.15;0.17;;;22.40;55.90;;;;;;5034035;28;20403;-46
2021/10/05 01:02:13;;;;;;;0.77;0.10;;;22.40;55.90;;;;;;5040596;28;20044;-46
2021/10/05 01:04:40;;;;;;;0.40;0.20;;;22.40;55.90;;;;;;5031301;28;20055;-47
2021/10/05 01:07:10;;;;;;;1.98;0.20;;;22.40;55.90;;;;;;5044990;28;20049;-46
2021/10/05 01:09:37;;;;;;;0.35;0.00;;;22.40;55.90;;;;;;5035805;28;20473;-50
2021/10/05 01:12:05;;;;;;;1.05;0.00;;;22.40;56.00;;;;;;5033984;28;20063;-46
2021/10/05 01:14:32;;;;;;;0.17;0.10;;;22.40;56.00;;;;;;5034028;28;20744;-50
2021/10/05 01:17:01;;;;;;;0.75;0.10;;;22.40;56.60;;;;;;5046083;28;20433;-47
2021/10/05 01:19:29;;;;;;;2.75;0.20;;;22.40;56.00;;;;;;5032872;28;20525;-45
2021/10/05 01:21:57;;;;;;;0.77;0.25;;;22.40;56.00;;;;;;5035654;28;20052;-44
2021/10/05 01:24:25;;;;;;;0.25;0.00;;;22.40;56.10;;;;;;5035464;28;20046;-47
2021/10/05 01:26:54;;;;;;;0.47;0.10;;;22.40;56.10;;;;;;5034831;28;20030;-45
2021/10/05 01:29:24;;;;;;;0.17;0.00;;;22.40;56.10;;;;;;5035689;28;20817;-48
2021/10/05 01:31:54;;;;;;;0.15;0.10;;;22.40;56.10;;;;;;5047332;28;20127;-47
2021/10/05 01:34:22;;;;;;;0.80;0.10;;;22.30;56.00;;;;;;5049307;28;20055;-48
2021/10/05 01:36:51;;;;;;;0.73;0.10;;;22.30;56.10;;;;;;5044119;28;20037;-46
2021/10/05 01:39:25;;;;;;;3.95;0.15;;;22.30;56.10;;;;;;5050290;28;20048;-48
2021/10/05 01:41:56;;;;;;;2.47;0.10;;;22.30;56.10;;;;;;5049960;28;20529;-49
2021/10/05 01:44:23;;;;;;;2.40;0.00;;;22.30;56.10;;;;;;5049744;28;20417;-47
2021/10/05 01:46:50;;;;;;;1.42;0.10;;;22.30;56.10;;;;;;5048330;28;20577;-46
2021/10/05 01:49:19;;;;;;;0.55;0.00;;;22.30;56.20;;;;;;5051331;28;20051;-45
2021/10/05 01:51:47;;;;;;;0.00;0.00;;;22.30;56.10;;;;;;5049261;28;20045;-46
2021/10/05 01:54:14;;;;;;;0.20;0.00;;;22.30;56.20;;;;;;5049503;28;20033;-45
2021/10/05 01:56:43;;;;;;;1.30;0.10;;;22.30;56.20;;;;;;5047918;28;20029;-45
2021/10/05 01:59:10;;;;;;;0.17;0.10;;;22.30;56.10;;;;;;5048436;28;20045;-46
2021/10/05 02:01:38;;;;;;;0.10;0.00;;;22.30;56.20;;;;;;5049649;28;20048;-45
2021/10/05 02:04:05;;;;;;;0.17;0.10;;;22.30;56.20;;;;;;5049746;28;20517;-47
2021/10/05 02:06:32;;;;;;;0.38;0.00;;;22.30;56.20;;;;;;5048855;28;20409;-49
2021/10/05 02:08:59;;;;;;;0.40;0.10;;;22.30;56.70;;;;;;5049132;28;20160;-47
2021/10/05 02:11:26;;;;;;;0.93;0.10;;;22.30;56.10;;;;;;5049231;28;20044;-45
2021/10/05 02:13:55;;;;;;;1.30;0.00;;;22.30;56.10;;;;;;5049079;28;20047;-46
2021/10/05 02:16:22;;;;;;;0.20;0.00;;;22.30;56.80;;;;;;5049424;28;20033;-46
2021/10/05 02:18:49;;;;;;;1.40;0.00;;;22.30;56.10;;;;;;5049167;28;20048;-48
2021/10/05 02:21:17;;;;;;;1.27;0.00;;;22.30;56.10;;;;;;5048946;28;20047;-49
2021/10/05 02:26:27;;;;;;;0.77;0.10;;;22.20;56.10;;;;;;5006573;28;20049;-48
2021/10/05 02:28:55;;;;;;;0.25;0.10;;;22.20;56.10;;;;;;5005928;28;20063;-47
2021/10/05 02:31:22;;;;;;;0.75;0.10;;;22.20;56.10;;;;;;5005233;28;20042;-46
2021/10/05 02:33:49;;;;;;;0.20;0.00;;;22.20;56.10;;;;;;5007167;28;20045;-46
2021/10/05 02:36:16;;;;;;;1.55;0.40;;;22.20;56.10;;;;;;5006250;28;20053;-46
2021/10/05 02:38:43;;;;;;;0.93;0.00;;;22.20;56.10;;;;;;5006159;28;20054;-47
2021/10/05 02:41:10;;;;;;;2.03;0.10;;;22.20;56.10;;;;;;5006521;28;20030;-47
2021/10/05 02:43:38;;;;;;;1.42;0.22;;;22.20;56.10;;;;;;5006125;28;20511;-51
2021/10/05 02:46:06;;;;;;;0.20;0.20;;;22.20;56.20;;;;;;5007410;28;20641;-47
2021/10/05 02:48:33;;;;;;;0.10;0.00;;;22.20;56.20;;;;;;5006153;28;20045;-50
2021/10/05 02:51:01;;;;;;;0.10;0.00;;;22.20;56.20;;;;;;5003120;28;20045;-47
2021/10/05 02:53:28;;;;;;;0.73;0.38;;;22.20;56.20;;;;;;5006379;28;20046;-45
2021/10/05 02:55:55;;;;;;;0.60;0.00;;;22.20;56.20;;;;;;5006051;28;20137;-46
2021/10/05 02:58:22;;;;;;;0.55;0.00;;;22.20;56.20;;;;;;5006954;28;20480;-47
2021/10/05 03:00:50;;;;;;;0.30;0.00;;;22.20;56.20;;;;;;5003199;28;20055;-49
2021/10/05 03:03:18;;;;;;;3.35;0.00;;;22.20;56.30;;;;;;5018278;28;20449;-47
2021/10/05 03:05:45;;;;;;;0.10;0.00;;;22.20;56.20;;;;;;5047069;28;20045;-46
2021/10/05 03:08:12;;;;;;;0.30;0.10;;;22.20;56.30;;;;;;5048174;28;20045;-47
2021/10/05 03:10:39;;;;;;;0.80;0.10;;;22.20;56.30;;;;;;5047033;28;20044;-45
2021/10/05 03:13:06;;;;;;;1.33;0.00;;;22.20;56.30;;;;;;5049457;28;20041;-46
2021/10/05 03:15:33;;;;;;;1.67;0.55;;;22.20;56.30;;;;;;5047405;28;20501;-45
2021/10/05 03:18:00;;;;;;;1.88;0.10;;;22.20;56.30;;;;;;5047245;28;20052;-47
2021/10/05 03:20:29;;;;;;;1.17;0.13;;;22.20;56.30;;;;;;5048270;28;20406;-47
2021/10/05 03:22:56;;;;;;;1.75;0.15;;;22.20;56.30;;;;;;5047586;28;20037;-47
2021/10/05 03:25:23;;;;;;;0.82;0.00;;;22.20;56.30;;;;;;5049237;28;20041;-46
2021/10/05 03:27:50;;;;;;;1.38;0.10;;;22.20;56.30;;;;;;5048495;28;20045;-46
2021/10/05 03:30:17;;;;;;;2.28;0.10;;;22.20;56.30;;;;;;5045220;28;20045;-47
2021/10/05 03:32:44;;;;;;;1.08;0.30;;;22.20;56.30;;;;;;5044409;28;20041;-46
2021/10/05 03:35:11;;;;;;;0.00;0.00;;;22.10;56.20;;;;;;5046493;28;20040;-47
2021/10/05 03:37:40;;;;;;;0.60;0.00;;;22.20;56.30;;;;;;5047619;28;20041;-48
2021/10/05 03:40:09;;;;;;;0.98;0.10;;;22.20;56.90;;;;;;5047667;28;20049;-48
2021/10/05 03:42:36;;;;;;;0.30;0.00;;;22.10;56.30;;;;;;5047644;28;20069;-45
2021/10/05 03:45:03;;;;;;;1.20;0.10;;;22.10;56.90;;;;;;5047414;28;20041;-46
2021/10/05 03:47:31;;;;;;;1.20;0.00;;;22.10;56.30;;;;;;5045419;28;20040;-47
2021/10/05 03:49:58;;;;;;;2.20;0.00;;;22.20;56.30;;;;;;5046735;28;20124;-46
2021/10/05 03:52:25;;;;;;;3.70;0.80;;;22.20;56.30;;;;;;5047973;28;20056;-46
2021/10/05 03:54:53;;;;;;;0.52;0.10;;;22.10;56.20;;;;;;5048082;28;20041;-45
2021/10/05 03:57:20;;;;;;;4.97;0.00;;;22.10;56.20;;;;;;5042855;28;20044;-45
2021/10/05 03:59:47;;;;;;;4.45;1.23;;;22.10;56.20;;;;;;5040752;28;20047;-46
2021/10/05 04:02:14;;;;;;;0.95;0.00;;;22.10;56.20;;;;;;5043270;28;20045;-47
2021/10/05 04:04:41;;;;;;;7.47;0.30;;;22.10;56.30;;;;;;5043949;28;20056;-49
2021/10/05 04:07:08;;;;;;;2.72;0.08;;;22.10;56.30;;;;;;5048671;28;20068;-47
2021/10/05 04:09:35;;;;;;;2.08;0.10;;;22.10;56.30;;;;;;5045227;28;20032;-47
2021/10/05 04:12:06;;;;;;;0.15;0.10;;;22.10;56.30;;;;;;5046536;28;20497;-46
2021/10/05 04:14:33;;;;;;;0.52;0.00;;;22.10;56.30;;;;;;5044442;28;20117;-46
2021/10/05 04:17:00;;;;;;;0.65;0.00;;;22.10;56.30;;;;;;5045161;28;20405;-46
2021/10/05 04:19:27;;;;;;;0.98;0.47;;;22.10;56.80;;;;;;5046449;28;20056;-46
2021/10/05 04:21:54;;;;;;;1.40;0.20;;;22.10;56.30;;;;;;5049575;28;20048;-46
2021/10/05 04:24:21;;;;;;;0.73;0.10;;;22.10;56.30;;;;;;5050574;28;20530;-47
2021/10/05 04:26:48;;;;;;;0.45;0.00;;;22.10;56.30;;;;;;5053395;28;20041;-49
2021/10/05 04:29:17;;;;;;;3.55;0.10;;;22.10;56.30;;;;;;5053004;28;20037;-49
2021/10/05 04:31:44;;;;;;;2.13;0.00;;;22.10;56.30;;;;;;5053640;28;20509;-48
2021/10/05 04:34:11;;;;;;;0.43;0.00;;;22.10;56.20;;;;;;5050165;28;20123;-47
2021/10/05 04:36:38;;;;;;;1.85;0.10;;;22.10;56.20;;;;;;5052011;28;20033;-48
2021/10/05 04:39:05;;;;;;;1.77;0.00;;;22.10;56.20;;;;;;5053252;28;20055;-48
2021/10/05 04:41:32;;;;;;;2.67;0.68;;;22.10;56.20;;;;;;5049413;28;20030;-48
2021/10/05 04:43:59;;;;;;;1.83;0.05;;;22.10;56.20;;;;;;5052413;28;20528;-48
2021/10/05 04:46:27;;;;;;;2.08;0.00;;;22.10;56.20;;;;;;5053818;28;20456;-46
2021/10/05 04:48:54;;;;;;;1.00;0.00;;;22.10;56.20;;;;;;5054384;28;20037;-46
2021/10/05 04:51:21;;;;;;;0.82;0.28;;;22.10;56.20;;;;;;5039990;28;20029;-47
2021/10/05 04:53:48;;;;;;;1.05;0.00;;;22.10;56.20;;;;;;5042039;28;20148;-46
2021/10/05 04:56:15;;;;;;;0.88;0.10;;;22.10;56.20;;;;;;5052001;28;20045;-46
2021/10/05 04:58:42;;;;;;;2.58;0.10;;;22.10;56.20;;;;;;5052662;28;20060;-46
2021/10/05 05:01:09;;;;;;;2.47;0.08;;;22.10;56.20;;;;;;5054101;28;20041;-49
2021/10/05 05:03:37;;;;;;;5.05;0.10;;;22.10;56.20;;;;;;5051228;28;20539;-46
2021/10/05 05:06:04;;;;;;;0.52;0.10;;;22.10;56.20;;;;;;5052453;28;20057;-48
2021/10/05 05:08:31;;;;;;;1.65;0.10;;;22.10;56.20;;;;;;5052916;28;20052;-48
2021/10/05 05:10:58;;;;;;;2.55;0.00;;;22.10;56.20;;;;;;5050620;28;20394;-47
2021/10/05 05:13:25;;;;;;;1.65;0.10;;;22.10;56.20;;;;;;5051982;28;20036;-47
2021/10/05 05:15:52;;;;;;;7.03;0.00;;;22.10;56.20;;;;;;5053767;28;20048;-49
2021/10/05 05:18:19;;;;;;;1.58;0.63;;;22.10;56.20;;;;;;5048824;28;20037;-48
2021/10/05 05:20:48;;;;;;;0.63;0.10;;;22.10;56.20;;;;;;5050560;28;20040;-47
2021/10/05 05:23:15;;;;;;;0.65;0.10;;;22.10;56.20;;;;;;5046671;28;20033;-47
2021/10/05 05:25:42;;;;;;;0.88;0.00;;;22.10;56.20;;;;;;5051580;28;20051;-51
2021/10/05 05:28:10;;;;;;;0.88;0.10;;;22.10;56.20;;;;;;5052495;28;20059;-47
2021/10/05 05:30:37;;;;;;;0.75;0.10;;;22.10;56.20;;;;;;5050840;28;20128;-50
2021/10/05 05:33:04;;;;;;;0.50;0.00;;;22.10;56.20;;;;;;5051702;28;20048;-49
2021/10/05 05:35:31;;;;;;;1.48;0.10;;;22.10;56.20;;;;;;5049294;28;20410;-46
2021/10/05 05:38:00;;;;;;;1.55;0.10;;;22.10;56.20;;;;;;5049294;28;20057;-47
2021/10/05 05:40:27;;;;;;;0.82;0.20;;;22.10;56.20;;;;;;5049813;28;20052;-46
2021/10/05 05:42:54;;;;;;;4.03;0.20;;;22.10;56.80;;;;;;5045890;28;20037;-46
2021/10/05 05:45:21;;;;;;;0.10;0.10;;;22.10;56.20;;;;;;5047797;28;20608;-45
2021/10/05 05:47:50;;;;;;;0.40;0.40;;;22.10;56.20;;;;;;5049577;28;20509;-46
2021/10/05 05:50:17;;;;;;;1.63;0.10;;;22.10;56.20;;;;;;5047960;28;20055;-46
2021/10/05 05:52:44;;;;;;;2.00;0.10;;;22.10;56.20;;;;;;5030707;28;20448;-47
2021/10/05 05:55:15;;;;;;;0.25;0.25;;;22.10;56.20;;;;;;5051048;28;20037;-47
2021/10/05 05:57:42;;;;;;;2.38;0.35;;;22.10;56.20;;;;;;5046294;28;20053;-49
2021/10/05 06:00:11;;;;;;;1.75;0.10;;;22.10;56.20;;;;;;5046075;28;20067;-47
2021/10/05 06:02:41;;;;;;;0.52;0.10;;;22.10;56.20;;;;;;5046618;28;20051;-47
2021/10/05 06:05:08;;;;;;;3.13;0.10;;;22.10;56.20;;;;;;5049383;28;20044;-48
2021/10/05 06:07:35;;;;;;;1.25;0.00;;;22.10;56.20;;;;;;5048775;28;20122;-47
2021/10/05 06:10:03;;;;;;;4.00;0.10;;;22.10;56.20;;;;;;5050706;28;20504;-49
2021/10/05 06:12:38;;;;;;;0.85;0.00;;;22.10;56.20;;;;;;5048014;28;20052;-47
2021/10/05 06:15:06;;;;;;;1.30;0.10;;;22.10;56.20;;;;;;5041948;28;20495;-47
2021/10/05 06:17:36;;;;;;;1.60;0.10;;;22.10;56.20;;;;;;5043562;28;20040;-46
2021/10/05 06:20:04;;;;;;;1.45;0.00;;;22.10;56.20;;;;;;5048158;28;20069;-48
2021/10/05 06:22:32;;;;;;;3.08;0.10;;;22.10;56.20;;;;;;5048700;28;20045;-49
2021/10/05 06:24:59;;;;;;;4.80;0.40;;;22.10;56.20;;;;;;5049539;28;20620;-48
2021/10/05 06:27:26;;;;;;;1.63;0.80;;;22.10;56.10;;;;;;5047701;28;20060;-50
2021/10/05 06:29:54;;;;;;;3.70;0.10;;;22.10;56.10;;;;;;5046911;28;20115;-48
2021/10/05 06:32:21;;;;;;;0.10;0.10;;;22.10;56.10;;;;;;5042360;28;20575;-47
2021/10/05 06:34:48;;;;;;;4.70;0.10;;;22.10;56.10;;;;;;5047091;28;20056;-50
2021/10/05 06:37:15;;;;;;;1.40;0.10;;;22.10;56.10;;;;;;5045604;28;20033;-48
2021/10/05 06:39:42;;;;;;;1.20;0.17;;;22.10;56.10;;;;;;5044833;28;20041;-50
2021/10/05 06:42:10;;;;;;;0.47;0.47;;;22.10;56.10;;;;;;5046404;28;20048;-50
2021/10/05 06:44:37;;;;;;;0.60;0.03;;;22.10;56.10;;;;;;5047621;28;20048;-47
2021/10/05 06:47:05;;;;;;;1.52;0.10;;;22.10;56.10;;;;;;5046935;28;20044;-48
2021/10/05 06:49:32;;;;;;;0.20;0.00;;;22.10;56.10;;;;;;5048725;28;20041;-48
2021/10/05 06:52:00;;;;;;;0.75;0.10;;;22.10;56.10;;;;;;5049610;28;20390;-46
2021/10/05 06:54:27;;;;;;;0.77;0.10;;;22.10;56.10;;;;;;5047130;28;20741;-48
2021/10/05 06:56:54;;;;;;;4.22;0.65;;;22.10;56.10;;;;;;5048119;28;20040;-50
2021/10/05 06:59:22;;;;;;;3.03;0.00;;;22.10;56.10;;;;;;5046241;28;20036;-47
2021/10/05 07:01:50;;;;;;;0.10;0.03;;;22.10;56.10;;;;;;5047796;28;20494;-50
2021/10/05 07:04:18;;;;;;;0.35;0.03;;;22.10;56.20;;;;;;5049502;28;20123;-45
2021/10/05 07:06:46;;;;;;;3.47;0.10;;;22.10;56.10;;;;;;5043974;28;20513;-47
2021/10/05 07:09:13;;;;;;;0.75;0.05;;;22.10;56.10;;;;;;5047453;28;20043;-46
2021/10/05 07:11:40;;;;;;;0.30;0.10;;;22.10;56.20;;;;;;5044417;28;20123;-46
2021/10/05 07:14:07;;;;;;;1.17;0.10;;;22.10;56.20;;;;;;5046396;28;20076;-47
2021/10/05 07:16:34;;;;;;;0.10;0.00;;;22.10;56.20;;;;;;5047282;28;20045;-46
2021/10/05 07:19:01;;;;;;;0.88;0.00;;;22.10;56.20;;;;;;5046868;28;20049;-46
2021/10/05 07:21:30;;;;;;;4.50;0.00;;;22.10;56.20;;;;;;5047518;28;20076;-46
2021/10/05 07:23:57;;;;;;;0.75;0.00;;;22.10;56.20;;;;;;5047076;28;20457;-47
2021/10/05 07:26:24;;;;;;;0.47;0.10;;;22.10;56.30;;;;;;5046991;28;20049;-50
2021/10/05 07:28:52;;;;;;;0.00;0.00;;;22.10;56.30;;;;;;5044593;28;20029;-46
2021/10/05 07:31:19;;;;;;;1.65;0.00;;;22.10;56.30;;;;;;5047755;28;20037;-46
2021/10/05 07:33:46;;;;;;;1.48;0.00;;;22.00;56.30;;;;;;5043428;28;20052;-46
2021/10/05 07:36:13;;;;;;;0.10;0.10;;;22.00;56.30;;;;;;5045776;28;20633;-48
2021/10/05 07:38:42;;;;;;;0.30;0.00;;;22.10;56.40;;;;;;5039883;28;20521;-47
2021/10/05 07:41:09;;;;;;;0.15;0.00;;;22.00;56.30;;;;;;5045818;28;20389;-47
2021/10/05 07:43:36;;;;;;;0.70;0.10;;;22.10;56.40;;;;;;5043866;28;20494;-48
2021/10/05 07:46:03;;;;;;;0.45;0.10;;;22.10;56.40;;;;;;5042820;28;20037;-46
2021/10/05 07:48:31;;;;;;;2.22;0.10;;;22.00;56.40;;;;;;5044588;28;20044;-47
2021/10/05 07:50:58;;;;;;;1.63;0.52;;;22.10;56.60;;;;;;5047457;28;20417;-59
2021/10/05 07:53:25;;;;;;;1.60;0.25;;;22.10;56.70;;;;;;5044681;28;20037;-56
2021/10/05 07:55:53;;;;;;;1.55;0.35;;;22.10;56.80;;;;;;5046848;28;20044;-55
2021/10/05 07:58:20;;;;;;;1.83;0.10;;;22.20;56.90;;;;;;5044694;28;20398;-54
2021/10/05 08:00:47;;;;;;;0.93;0.10;;;22.20;57.00;;;;;;5046628;28;20517;-54
2021/10/05 08:03:14;;;;;;;1.52;0.03;;;22.20;56.90;;;;;;5043152;28;20074;-54
2021/10/05 08:05:41;;;;;;;0.50;0.00;;;22.20;56.90;;;;;;5042619;28;20037;-54
2021/10/05 08:08:08;;;;;;;0.68;0.20;;;22.30;56.90;;;;;;5044224;28;20036;-58
2021/10/05 08:10:36;;;;;;;0.10;0.00;;;22.30;56.90;;;;;;5043142;28;20116;-54
2021/10/05 08:13:06;;;;;;;0.52;0.00;;;22.30;56.80;;;;;;5047090;28;20043;-57
2021/10/05 08:15:33;;;;;;;2.15;0.10;;;22.30;56.90;;;;;;5042018;28;20132;-58
2021/10/05 08:18:00;;;;;;;0.10;0.00;;;22.30;56.80;;;;;;5046481;28;20513;-59
2021/10/05 08:20:28;;;;;;;4.40;1.27;;;22.30;56.80;;;;;;5043571;28;20045;-60
2021/10/05 08:22:55;;;;;;;2.47;0.10;;;22.40;56.80;;;;;;5043242;28;20051;-53
2021/10/05 08:25:23;;;;;;;0.10;0.10;;;22.40;56.80;;;;;;5045297;28;20056;-50
2021/10/05 08:27:50;;;;;;;0.63;0.13;;;22.40;56.90;;;;;;5044885;28;20044;-53
2021/10/05 08:30:19;;;;;;;0.20;0.00;;;22.40;56.90;;;;;;5044281;28;20121;-55
2021/10/05 08:32:47;;;;;;;1.50;0.03;;;22.40;56.90;;;;;;5046288;28;20524;-56
2021/10/05 08:35:15;;;;;;;0.20;0.17;;;22.40;56.90;;;;;;5038025;28;20049;-50
2021/10/05 08:37:42;;;;;;;0.38;0.00;;;22.50;57.00;;;;;;5042318;28;20041;-54
2021/10/05 08:40:12;;;;;;;0.38;0.00;;;22.40;56.90;;;;;;5045858;28;20047;-55
2021/10/05 08:42:39;;;;;;;0.75;0.10;;;22.50;57.00;;;;;;5040170;28;20075;-49
2021/10/05 08:45:09;;;;;;;0.20;0.10;;;22.50;57.00;;;;;;5044707;28;20505;-53
2021/10/05 08:47:38;;;;;;;0.90;0.10;;;22.50;57.00;;;;;;5042124;28;20056;-52
2021/10/05 08:50:07;;;;;;;2.10;0.10;;;22.50;57.00;;;;;;5045306;28;20107;-47
2021/10/05 08:52:34;;;;;;;1.48;0.00;;;22.50;57.00;;;;;;5041908;28;20037;-48
2021/10/05 08:55:01;;;;;;;0.57;0.57;;;22.50;57.00;;;;;;5045151;28;20067;-48
2021/10/05 08:57:28;;;;;;;1.30;0.05;;;22.50;57.00;;;;;;5042639;28;20039;-48
2021/10/05 08:59:55;;;;;;;0.10;0.05;;;22.50;57.00;;;;;;5042725;28;20414;-52
2021/10/05 09:02:23;;;;;;;0.52;0.10;;;22.50;57.00;;;;;;5042826;28;20045;-53
2021/10/05 09:04:57;;;;;;;0.65;0.10;;;22.60;57.10;;;;;;5045551;28;20048;-56
2021/10/05 09:07:26;;;;;;;2.70;0.10;;;22.50;57.00;;;;;;5039912;28;20099;-54
2021/10/05 09:09:58;;;;;;;0.68;0.17;;;22.60;57.00;;;;;;5047041;28;20045;-56
2021/10/05 09:12:26;;;;;;;5.00;0.15;;;22.60;57.10;;;;;;5048629;28;20528;-53
2021/10/05 09:14:53;;;;;;;0.32;0.10;;;22.60;57.20;;;;;;5048593;28;20464;-49
2021/10/05 09:17:22;;;;;;;0.00;0.00;;;22.60;57.20;;;;;;5047489;28;20716;-48
2021/10/05 09:19:51;;;;;;;0.00;0.00;;;22.50;57.20;;;;;;5045399;28;20041;-59
2021/10/05 09:22:22;;;;;;;0.52;0.22;;;22.50;57.20;;;;;;5047429;28;20052;-58
2021/10/05 09:24:51;;;;;;;0.40;0.00;;;22.50;57.20;;;;;;5046856;28;20136;-54
2021/10/05 09:27:18;;;;;;;0.57;0.00;;;22.60;57.30;;;;;;5048450;28;20052;-57
2021/10/05 09:29:47;;;;;;;0.43;0.43;;;22.60;57.20;;;;;;5043159;28;20056;-55
2021/10/05 09:32:16;;;;;;;1.58;0.43;;;22.60;57.20;;;;;;5047318;28;20160;-54
2021/10/05 09:34:46;;;;;;;1.10;0.05;;;22.60;57.20;;;;;;5048062;28;20048;-60
2021/10/05 09:37:19;;;;;;;0.10;0.00;;;22.60;57.20;;;;;;5050234;28;20056;-61
2021/10/05 09:39:50;;;;;;;0.22;0.10;;;22.60;57.20;;;;;;5048087;28;20486;-61
2021/10/05 09:42:26;;;;;;;1.38;0.10;;;22.60;57.20;;;;;;5045209;28;20037;-58
2021/10/05 09:44:54;;;;;;;;;;;22.60;57.10;;;;;;5045805;28;20033;-49
2021/10/05 09:47:31;;;;;;;1.27;0.00;;;22.60;57.10;;;;;;5045926;28;19986;-60
2021/10/05 09:49:58;;;;;;;2.17;0.10;;;22.60;57.40;;;;;;5045479;28;20041;-60
2021/10/05 09:52:38;;;;;;;0.38;0.00;;;22.50;57.30;;;;;;5038929;28;20041;-58
2021/10/05 09:55:06;;;;;;;0.20;0.13;;;22.60;57.30;;;;;;5048777;28;20047;-55
2021/10/05 09:57:33;;;;;;;1.00;0.00;;;22.60;57.30;;;;;;5046271;28;20048;-59
2021/10/05 10:00:00;;;;;;;0.10;0.00;;;22.60;57.30;;;;;;5045290;28;20056;-56
2021/10/05 10:02:27;;;;;;;0.68;0.08;;;22.60;57.20;;;;;;5048004;28;20051;-53
2021/10/05 10:04:56;;;;;;;0.10;0.10;;;22.60;57.20;;;;;;5045942;28;20055;-51
2021/10/05 10:07:23;;;;;;;0.10;0.00;;;22.70;57.20;;;;;;5043713;28;20111;-56
2021/10/05 10:09:54;;;;;;;1.42;0.10;;;22.70;57.20;;;;;;5045870;28;20069;-58
2021/10/05 10:12:22;;;;;;;0.70;0.10;;;22.70;57.20;;;;;;5045318;28;20036;-58
2021/10/05 10:14:50;;;;;;;0.28;0.20;;;22.70;57.20;;;;;;5047126;28;20037;-52
2021/10/05 10:17:24;;;;;;;0.43;0.10;;;22.70;57.20;;;;;;5047438;28;20037;-57
2021/10/05 10:19:52;;;;;;;0.70;0.10;;;22.70;57.20;;;;;;5047416;28;20509;-55
2021/10/05 10:22:19;;;;;;;2.53;0.10;;;22.70;57.20;;;;;;5048972;28;20029;-56
2021/10/05 10:24:48;;;;;;;0.93;0.00;;;22.70;57.20;;;;;;5044977;28;20045;-58
2021/10/05 10:27:19;;;;;;;1.40;0.15;;;22.70;57.20;;;;;;5048461;28;20510;-57
2021/10/05 10:29:46;;;;;;;0.10;0.05;;;22.70;57.20;;;;;;5044657;28;20064;-60
2021/10/05 10:32:17;;;;;;;1.15;0.32;;;22.80;57.10;;;;;;5046521;28;20452;-59
2021/10/05 10:34:46;;;;;;;0.05;0.05;;;22.80;57.10;;;;;;5047096;28;20099;-58
2021/10/05 10:37:15;;;;;;;0.50;0.10;;;22.80;57.10;;;;;;5049153;28;20035;-57
2021/10/05 10:39:45;;;;;;;0.08;0.00;;;22.80;57.10;;;;;;5044316;28;20539;-57
2021/10/05 10:42:16;;;;;;;0.10;0.10;;;22.80;57.00;;;;;;5044334;28;20473;-58
2021/10/05 10:44:45;;;;;;;1.45;0.00;;;22.80;56.90;;;;;;5040877;28;20111;-57
2021/10/05 10:47:14;;;;;;;0.60;0.10;;;22.90;56.90;;;;;;5044339;28;20033;-51
2021/10/05 10:49:53;;;;;;;1.17;0.20;;;22.90;56.80;;;;;;5043373;28;20037;-51
2021/10/05 10:52:24;;;;;;;1.33;0.10;;;22.90;56.70;;;;;;5047402;28;20045;-53
2021/10/05 10:54:53;;;;;;;1.65;0.10;;;23.00;56.70;;;;;;5045373;28;20456;-51
2021/10/05 10:57:32;;;;;;;0.98;0.08;;;23.00;56.60;;;;;;5041272;28;20045;-52
2021/10/05 11:00:14;;;;;;;0.30;0.00;;;23.00;56.40;;;;;;5045093;28;20049;-50
2021/10/05 11:02:42;;;;;;;0.40;0.10;;;23.10;56.40;;;;;;5045112;28;20037;-52
2021/10/05 11:05:10;;;;;;;0.10;0.10;;;23.10;56.40;;;;;;5047254;28;20123;-58
2021/10/05 11:07:37;;;;;;;0.08;0.03;;;23.10;56.30;;;;;;5044935;28;20045;-52
2021/10/05 11:10:06;;;;;;;2.10;0.10;;;23.10;56.10;;;;;;5044624;28;20036;-52
2021/10/05 11:12:36;;;;;;;2.05;0.15;;;23.10;56.00;;;;;;5044990;28;20037;-49
2021/10/05 11:15:04;;;;;;;0.68;0.10;;;23.20;55.90;;;;;;5046842;28;20051;-51
2021/10/05 11:17:35;;;;;;;0.10;0.10;;;23.20;55.70;;;;;;5044501;28;20037;-54
2021/10/05 11:20:08;;;;;;;5.60;0.10;;;23.20;55.60;;;;;;5047501;28;20041;-48
2021/10/05 11:22:35;;;;;;;5.03;0.35;;;23.20;55.70;;;;;;5045325;28;20517;-47
2021/10/05 11:25:04;;;;;;;8.82;0.17;;;23.20;55.70;;;;;;5045872;28;20037;-46
2021/10/05 11:27:31;;;;;;;11.07;0.32;;;23.20;55.70;;;;;;5045851;28;20033;-61
2021/10/05 11:30:05;;;;;;;2.65;0.17;;;23.20;55.70;;;;;;5046448;28;20037;-65
2021/10/05 11:32:33;;;;;;;3.60;0.17;;;23.20;55.70;;;;;;5046715;28;20041;-66
2021/10/05 11:35:01;;;;;;;3.20;0.20;;;23.20;55.60;;;;;;5047595;28;20052;-65
2021/10/05 11:37:28;;;;;;;3.35;0.20;;;23.20;55.40;;;;;;5047837;28;20049;-66
2021/10/05 11:39:57;;;;;;;2.97;0.10;;;23.30;55.30;;;;;;5047343;28;20421;-66
2021/10/05 11:42:27;;;;;;;4.13;0.10;;;23.30;55.10;;;;;;5047507;28;20412;-66
2021/10/05 11:44:57;;;;;;;4.10;0.10;;;23.30;55.00;;;;;;5045073;28;20048;-66
2021/10/05 11:47:26;;;;;;;4.25;0.47;;;23.30;54.80;;;;;;5043593;28;20052;-66
2021/10/05 11:49:58;;;;;;;8.15;1.30;;;23.30;54.70;;;;;;5043681;28;20033;-67
2021/10/05 11:52:30;;;;;;;2.65;0.10;;;23.40;54.60;;;;;;5047958;28;20045;-66
2021/10/05 11:54:58;;;;;;;3.40;0.22;;;23.40;54.40;;;;;;5044473;28;20524;-66
2021/10/05 11:57:27;;;;;;;2.75;0.32;;;23.40;54.20;;;;;;5047498;28;20045;-67
2021/10/05 12:00:00;;;;;;;1.83;0.10;;;23.40;54.10;;;;;;5040868;28;20056;-67
2021/10/05 12:02:27;;;;;;;2.45;0.10;;;23.40;53.90;;;;;;5038625;28;20041;-66
2021/10/05 12:04:56;;;;;;;6.00;0.20;;;23.40;53.80;;;;;;5042073;28;20044;-67
2021/10/05 12:07:27;;;;;;;0.85;0.00;;;23.50;53.80;;;;;;5044973;28;20505;-66
2021/10/05 12:09:58;;;;;;;0.93;0.40;;;23.50;53.70;;;;;;5048218;28;20472;-67
2021/10/05 12:12:29;;;;;;;0.77;0.10;;;23.50;53.60;;;;;;5045672;28;20421;-67
2021/10/05 12:14:57;;;;;;;2.75;0.55;;;23.50;53.40;;;;;;5046814;28;20048;-67
2021/10/05 12:17:25;;;;;;;6.97;0.40;;;23.50;53.30;;;;;;5047085;28;20437;-67
2021/10/05 12:19:54;;;;;;;0.85;0.28;;;23.50;53.20;;;;;;5041599;28;20041;-67
2021/10/05 12:22:23;;;;;;;0.15;0.03;;;23.50;53.10;;;;;;5044628;28;20049;-67
2021/10/05 12:24:54;;;;;;;0.40;0.08;;;23.50;52.90;;;;;;5047834;28;20055;-67
2021/10/05 12:27:36;;;;;;;0.73;0.08;;;23.60;52.80;;;;;;5043607;28;20501;-67
2021/10/05 12:30:09;;;;;;;1.38;0.10;;;23.60;52.70;;;;;;5046753;28;20036;-67
2021/10/05 12:32:40;;;;;;;0.40;0.20;;;23.60;52.70;;;;;;5046998;28;20102;-66
2021/10/05 12:35:21;;;;;;;2.35;0.10;;;23.60;52.70;;;;;;5047147;28;20037;-67
2021/10/05 12:37:57;;;;;;;0.70;0.10;;;23.70;52.70;;;;;;5045819;28;20142;-67
2021/10/05 12:40:25;;;;;;;1.67;0.10;;;23.70;52.70;;;;;;5039626;28;20041;-67
2021/10/05 12:42:53;;;;;;;3.55;0.10;;;23.70;52.60;;;;;;5045850;28;20041;-67
2021/10/05 12:45:22;;;;;;;1.77;0.03;;;23.70;52.50;;;;;;5050679;28;20049;-67
2021/10/05 12:47:55;;;;;;;0.40;0.10;;;23.70;52.40;;;;;;5050541;28;20501;-67
2021/10/05 12:50:23;;;;;;;3.40;0.63;;;23.70;52.30;;;;;;5050880;28;20065;-67
2021/10/05 12:52:54;;;;;;;0.80;0.20;;;23.70;52.20;;;;;;5050983;28;20040;-67
2021/10/05 12:55:22;;;;;;;1.65;0.08;;;23.70;52.10;;;;;;5048421;28;20060;-67